createdAt,value
2022-09-05T00:03:40.624Z,94.80
2022-09-05T00:13:57.953Z,91.97
2022-09-05T00:24:30.063Z,87.80
2022-09-05T00:35:13.758Z,92.37
2022-09-05T00:45:25.408Z,90.20
2022-09-05T00:55:42.071Z,91.23
2022-09-05T01:06:10.811Z,90.00
2022-09-05T01:16:25.562Z,91.67
2022-09-05T01:29:13.850Z,93.53
2022-09-05T01:38:23.134Z,91.50
2022-09-05T01:48:47.599Z,92.40
2022-09-05T01:59:14.729Z,90.73
2022-09-05T02:09:42.957Z,89.07
2022-09-05T02:19:53.484Z,89.83
2022-09-05T02:30:09.578Z,88.53
2022-09-05T02:45:02.834Z,92.80
2022-09-05T02:57:27.752Z,88.97
2022-09-05T03:01:59.189Z,92.20
2022-09-05T03:13:01.494Z,90.07
2022-09-05T03:23:44.619Z,90.03
2022-09-05T03:34:29.269Z,88.40
2022-09-05T03:44:53.095Z,89.60
2022-09-05T03:57:17.818Z,91.80
2022-09-05T04:08:20.442Z,91.23
2022-09-05T04:16:23.341Z,86.80
2022-09-05T04:27:08.882Z,91.20
2022-09-05T04:37:48.694Z,92.93
2022-09-05T04:47:56.544Z,90.73
2022-09-05T04:58:05.480Z,94.80
2022-09-05T05:08:36.439Z,93.73
2022-09-05T05:18:59.970Z,92.80
2022-09-05T05:29:18.817Z,95.10
2022-09-05T05:39:27.553Z,97.73
2022-09-05T05:49:48.564Z,93.87
2022-09-05T06:00:06.807Z,99.50
2022-09-05T06:15:02.642Z,98.77
2022-09-05T06:22:16.978Z,99.30
2022-09-05T06:32:43.159Z,100.97
2022-09-05T06:43:32.861Z,104.60
2022-09-05T06:54:19.867Z,110.63
2022-09-05T07:05:23.312Z,111.23
2022-09-05T07:15:13.473Z,116.50
2022-09-05T07:25:26.293Z,121.03
2022-09-05T07:35:41.683Z,124.30
2022-09-05T07:45:55.540Z,120.80
2022-09-05T07:56:55.764Z,137.13
2022-09-05T08:07:11.968Z,125.68
2022-09-05T08:16:53.219Z,134.18
2022-09-05T08:27:16.089Z,135.57
2022-09-05T08:37:22.930Z,134.82
2022-09-05T08:47:45.070Z,133.35
2022-09-05T08:58:33.572Z,139.38
2022-09-05T09:08:56.473Z,133.10
2022-09-05T09:19:09.477Z,146.35
2022-09-05T09:29:18.878Z,145.95
2022-09-05T09:39:39.178Z,136.13
2022-09-05T09:50:11.220Z,138.30
2022-09-05T10:00:21.584Z,152.35
2022-09-05T10:11:51.502Z,150.48
2022-09-05T10:35:05.867Z,135.57
2022-09-05T10:43:15.192Z,135.52
2022-09-05T10:53:39.983Z,135.57
2022-09-05T11:03:53.352Z,150.48
2022-09-05T11:14:00.970Z,153.77
2022-09-05T11:24:22.168Z,166.82
2022-09-05T11:39:51.544Z,171.25
2022-09-05T11:46:03.459Z,184.57
2022-09-05T11:56:41.929Z,164.07
2022-09-05T12:07:30.403Z,152.10
2022-09-05T12:17:47.363Z,167.85
2022-09-05T12:28:28.667Z,159.98
2022-09-05T12:40:52.964Z,156.18
2022-09-05T12:49:08.705Z,155.10
2022-09-05T13:02:57.343Z,145.27
2022-09-05T13:13:47.007Z,145.70
2022-09-05T13:20:25.911Z,136.68
2022-09-05T13:31:53.457Z,120.97
2022-09-05T13:41:01.398Z,126.25
2022-09-05T13:51:29.937Z,127.30
2022-09-05T14:02:26.223Z,126.90
2022-09-05T14:12:38.213Z,124.70
2022-09-05T14:22:49.141Z,125.53
2022-09-05T14:37:41.894Z,119.95
2022-09-05T14:44:09.021Z,119.88
2022-09-05T15:04:45.509Z,121.73
2022-09-05T15:15:01.592Z,111.03
2022-09-05T15:25:17.932Z,110.37
2022-09-05T15:35:38.601Z,110.13
2022-09-05T15:45:47.215Z,109.73
2022-09-05T15:55:58.246Z,111.43
2022-09-05T16:10:28.685Z,106.67
2022-09-05T16:23:12.991Z,106.27
2022-09-05T16:27:01.519Z,106.67
2022-09-05T16:37:11.819Z,108.33
2022-09-05T16:47:25.630Z,108.67
2022-09-05T16:57:33.847Z,105.60
2022-09-05T17:08:09.151Z,107.03
2022-09-05T17:18:21.327Z,104.43
2022-09-05T17:29:45.639Z,104.80
2022-09-05T17:39:44.440Z,104.33
2022-09-05T17:49:50.589Z,98.33
2022-09-05T17:59:54.823Z,104.27
2022-09-05T18:10:12.213Z,103.10
2022-09-05T18:20:25.645Z,108.10
2022-09-05T18:30:36.300Z,100.93
2022-09-05T18:40:54.440Z,109.00
2022-09-05T18:51:15.611Z,103.77
2022-09-05T19:01:33.707Z,104.50
2022-09-05T19:11:53.536Z,100.23
2022-09-05T19:23:03.942Z,99.43
2022-09-05T19:37:13.583Z,104.67
2022-09-05T19:47:38.376Z,95.80
2022-09-05T19:53:19.980Z,97.90
2022-09-05T20:03:23.752Z,94.87
2022-09-05T20:13:29.541Z,98.07
2022-09-05T20:23:33.922Z,93.77
2022-09-05T20:33:45.929Z,97.70
2022-09-05T20:44:04.686Z,97.17
2022-09-05T20:54:31.712Z,92.87
2022-09-05T21:04:39.663Z,90.47
2022-09-05T21:14:46.391Z,100.33
2022-09-05T21:24:50.586Z,94.10
2022-09-05T21:34:55.648Z,92.53
2022-09-05T21:47:40.324Z,89.20
2022-09-05T21:59:32.836Z,92.80
2022-09-05T22:05:57.851Z,88.40
2022-09-05T22:16:10.453Z,91.40
2022-09-05T22:26:15.727Z,91.33
2022-09-05T22:36:21.192Z,91.53
2022-09-05T22:46:25.230Z,89.20
2022-09-05T22:56:35.434Z,89.23
2022-09-05T23:06:39.405Z,86.13
2022-09-05T23:16:44.917Z,89.93
2022-09-05T23:26:48.692Z,86.60
2022-09-05T23:36:54.133Z,84.57
2022-09-05T23:46:57.967Z,87.13
2022-09-05T23:57:03.171Z,87.07
